createdAt,value
2018-10-03T00:01:39.524Z,7.36
2018-10-03T00:04:09.245Z,7.33
2018-10-03T00:06:39.056Z,7.30
2018-10-03T00:09:09.913Z,7.32
2018-10-03T00:11:39.808Z,7.31
2018-10-03T00:14:09.574Z,7.29
2018-10-03T00:16:39.428Z,7.26
2018-10-03T00:19:09.215Z,7.25
2018-10-03T00:21:39.013Z,7.26
2018-10-03T00:24:08.816Z,7.21
2018-10-03T00:26:38.579Z,7.17
2018-10-03T00:29:08.438Z,7.16
2018-10-03T00:31:38.240Z,7.18
2018-10-03T00:34:08.128Z,7.20
2018-10-03T00:36:37.953Z,7.13
2018-10-03T00:39:09.828Z,7.03
2018-10-03T00:41:40.265Z,6.98
2018-10-03T00:44:10.065Z,6.92
2018-10-03T00:46:39.919Z,6.88
2018-10-03T00:49:10.137Z,6.85
2018-10-03T00:51:40.071Z,6.82
2018-10-03T00:54:09.800Z,6.83
2018-10-03T00:56:39.693Z,6.79
2018-10-03T00:59:09.520Z,6.78
2018-10-03T01:01:39.335Z,6.83
2018-10-03T01:04:09.123Z,6.85
2018-10-03T01:06:38.919Z,6.86
2018-10-03T01:09:08.759Z,6.86
2018-10-03T01:11:38.539Z,6.86
2018-10-03T01:14:08.405Z,6.88
2018-10-03T01:16:38.173Z,6.85
2018-10-03T01:19:08.047Z,6.84
2018-10-03T01:21:37.881Z,6.80
2018-10-03T01:24:07.709Z,6.76
2018-10-03T01:26:37.569Z,6.72
2018-10-03T01:29:07.333Z,6.70
2018-10-03T01:31:37.169Z,6.68
2018-10-03T01:34:07.093Z,6.66
2018-10-03T01:36:36.870Z,6.65
2018-10-03T01:39:08.713Z,6.61
2018-10-03T01:41:38.979Z,6.54
2018-10-03T01:44:09.226Z,6.51
2018-10-03T01:46:40.219Z,6.49
2018-10-03T01:49:10.300Z,6.45
2018-10-03T01:51:40.765Z,6.43
2018-10-03T01:54:11.069Z,6.45
2018-10-03T01:56:42.080Z,6.36
2018-10-03T01:59:12.505Z,6.28
2018-10-03T02:01:42.314Z,6.24
2018-10-03T02:04:12.620Z,6.20
2018-10-03T02:06:42.729Z,6.23
2018-10-03T02:09:12.985Z,6.24
2018-10-03T02:11:43.378Z,6.24
2018-10-03T02:14:13.745Z,6.27
2018-10-03T02:16:44.087Z,6.26
2018-10-03T02:19:14.437Z,6.27
2018-10-03T02:21:45.253Z,6.30
2018-10-03T02:24:15.497Z,6.35
2018-10-03T02:26:45.924Z,6.36
2018-10-03T02:29:16.763Z,6.37
2018-10-03T02:31:46.477Z,6.38
2018-10-03T02:34:16.141Z,6.38
2018-10-03T02:36:46.096Z,6.35
2018-10-03T02:39:16.714Z,6.35
2018-10-03T02:41:47.148Z,6.39
2018-10-03T02:44:17.051Z,6.38
2018-10-03T02:46:46.694Z,6.35
2018-10-03T02:49:18.123Z,6.27
2018-10-03T02:51:49.242Z,6.18
2018-10-03T02:54:18.993Z,6.17
2018-10-03T02:56:49.364Z,6.20
2018-10-03T02:59:19.844Z,6.17
2018-10-03T03:01:49.635Z,6.17
2018-10-03T03:04:20.081Z,6.15
2018-10-03T03:06:51.744Z,6.13
2018-10-03T03:09:21.398Z,6.13
2018-10-03T03:11:51.853Z,6.15
2018-10-03T03:14:22.098Z,6.14
2018-10-03T03:16:52.427Z,6.15
2018-10-03T03:19:22.494Z,6.14
2018-10-03T03:21:53.470Z,6.15
2018-10-03T03:24:23.392Z,6.15
2018-10-03T03:26:54.453Z,6.14
2018-10-03T03:29:24.440Z,6.10
2018-10-03T03:31:54.804Z,6.06
2018-10-03T03:34:24.417Z,6.04
2018-10-03T03:36:55.306Z,6.06
2018-10-03T03:39:25.950Z,6.08
2018-10-03T03:41:56.760Z,6.04
2018-10-03T03:44:26.773Z,5.98
2018-10-03T03:46:56.460Z,5.94
2018-10-03T03:49:26.107Z,5.92
2018-10-03T03:51:56.335Z,5.91
2018-10-03T03:54:26.056Z,5.91
2018-10-03T03:56:57.810Z,5.91
2018-10-03T03:59:28.364Z,5.85
2018-10-03T04:01:58.764Z,5.79
2018-10-03T04:04:29.014Z,5.75
2018-10-03T04:06:58.810Z,5.76
2018-10-03T04:09:28.989Z,5.73
2018-10-03T04:11:59.158Z,5.69
2018-10-03T04:14:29.179Z,5.66
2018-10-03T04:16:59.602Z,5.66
2018-10-03T04:19:30.050Z,5.71
2018-10-03T04:22:00.148Z,5.73
2018-10-03T04:24:29.930Z,5.70
2018-10-03T04:27:00.609Z,5.72
2018-10-03T04:29:31.491Z,5.70
2018-10-03T04:32:04.910Z,5.63
2018-10-03T04:34:35.174Z,5.57
2018-10-03T04:37:05.057Z,5.58
2018-10-03T04:39:35.685Z,5.58
2018-10-03T04:42:05.864Z,5.59
2018-10-03T04:44:35.851Z,5.57
2018-10-03T04:47:06.064Z,5.58
2018-10-03T04:49:35.748Z,5.63
2018-10-03T04:52:05.451Z,5.68
2018-10-03T04:54:35.122Z,5.61
2018-10-03T04:57:05.931Z,5.61
2018-10-03T04:59:35.938Z,5.63
2018-10-03T05:02:05.713Z,5.60
2018-10-03T05:04:35.700Z,5.61
2018-10-03T05:07:06.035Z,5.63
2018-10-03T05:09:36.298Z,5.68
2018-10-03T05:12:06.681Z,5.71
2018-10-03T05:14:36.766Z,5.73
2018-10-03T05:17:06.671Z,5.78
2018-10-03T05:19:38.038Z,5.84
2018-10-03T05:22:08.089Z,6.06
2018-10-03T05:24:38.747Z,6.32
2018-10-03T05:27:09.899Z,6.78
2018-10-03T05:29:39.591Z,7.05
2018-10-03T05:32:09.696Z,7.18
2018-10-03T05:34:39.875Z,7.16
2018-10-03T05:37:10.350Z,7.18
2018-10-03T05:39:40.942Z,7.13
2018-10-03T05:42:10.617Z,7.13
2018-10-03T05:44:40.983Z,7.13
2018-10-03T05:47:11.542Z,7.07
2018-10-03T05:49:41.905Z,7.04
2018-10-03T05:52:12.163Z,7.03
2018-10-03T05:54:42.511Z,6.95
2018-10-03T05:57:13.405Z,6.90
2018-10-03T05:59:43.075Z,6.99
2018-10-03T06:02:12.734Z,7.13
2018-10-03T06:04:43.631Z,7.35
2018-10-03T06:07:13.716Z,7.61
2018-10-03T06:09:43.840Z,7.96
2018-10-03T06:12:14.207Z,8.33
2018-10-03T06:14:44.044Z,8.44
2018-10-03T06:17:14.163Z,8.51
2018-10-03T06:19:43.957Z,8.59
2018-10-03T06:22:13.889Z,8.64
2018-10-03T06:24:44.623Z,8.74
2018-10-03T06:27:15.843Z,8.89
2018-10-03T06:29:45.651Z,9.07
2018-10-03T06:32:16.882Z,9.15
2018-10-03T06:34:48.109Z,9.23
2018-10-03T06:37:18.078Z,9.35
2018-10-03T06:39:48.513Z,9.42
2018-10-03T06:42:20.595Z,9.49
2018-10-03T06:44:51.341Z,9.54
2018-10-03T06:47:22.367Z,9.56
2018-10-03T06:49:52.754Z,9.64
2018-10-03T06:52:22.681Z,9.79
2018-10-03T06:54:52.379Z,9.92
2018-10-03T06:57:22.553Z,10.03
2018-10-03T06:59:53.500Z,10.17
2018-10-03T07:02:23.398Z,10.18
2018-10-03T07:04:53.479Z,10.35
2018-10-03T07:07:24.007Z,10.46
2018-10-03T07:09:54.583Z,10.53
2018-10-03T07:12:25.454Z,10.75
2018-10-03T07:14:56.716Z,10.98
2018-10-03T07:17:26.919Z,11.18
2018-10-03T07:19:58.044Z,11.29
2018-10-03T07:22:34.969Z,11.49
2018-10-03T07:25:05.114Z,11.61
2018-10-03T07:27:36.022Z,11.73
2018-10-03T07:30:06.268Z,11.75
2018-10-03T07:32:38.288Z,11.95
2018-10-03T07:35:08.911Z,12.04
2018-10-03T07:37:39.029Z,12.21
2018-10-03T07:40:09.021Z,12.34
2018-10-03T07:42:39.678Z,12.29
2018-10-03T07:45:10.681Z,12.39
2018-10-03T07:47:41.662Z,12.52
2018-10-03T07:50:11.660Z,12.60
2018-10-03T07:52:42.374Z,12.58
2018-10-03T07:55:12.081Z,12.64
2018-10-03T07:57:42.881Z,12.57
2018-10-03T08:00:13.484Z,12.50
2018-10-03T08:02:44.116Z,12.51
2018-10-03T08:05:15.031Z,12.60
2018-10-03T08:07:45.973Z,12.59
2018-10-03T08:10:16.036Z,12.66
2018-10-03T08:12:46.810Z,12.75
2018-10-03T08:15:17.988Z,12.74
2018-10-03T08:17:48.326Z,12.74
2018-10-03T08:20:19.644Z,12.73
2018-10-03T08:22:49.757Z,12.80
2018-10-03T08:25:19.799Z,12.99
2018-10-03T08:27:49.881Z,13.09
2018-10-03T08:30:20.142Z,13.13
2018-10-03T08:32:50.819Z,13.18
2018-10-03T08:35:20.877Z,13.18
2018-10-03T08:37:51.432Z,13.22
2018-10-03T08:40:21.431Z,13.34
2018-10-03T08:42:51.195Z,13.48
2018-10-03T08:45:21.465Z,13.49
2018-10-03T08:47:53.167Z,13.50
2018-10-03T08:50:22.878Z,13.59
2018-10-03T08:52:52.861Z,13.61
2018-10-03T08:55:22.959Z,13.62
2018-10-03T08:57:53.204Z,13.58
2018-10-03T09:00:23.650Z,13.52
2018-10-03T09:02:54.471Z,13.44
2018-10-03T09:05:26.206Z,13.35
2018-10-03T09:08:07.822Z,13.28
2018-10-03T09:10:38.032Z,13.19
2018-10-03T09:13:08.397Z,13.11
2018-10-03T09:15:39.109Z,13.09
2018-10-03T09:18:09.100Z,13.06
2018-10-03T09:20:39.413Z,13.04
2018-10-03T09:23:10.244Z,13.04
2018-10-03T09:25:41.245Z,12.94
2018-10-03T09:28:11.330Z,12.96
2018-10-03T09:30:41.234Z,13.03
2018-10-03T09:33:11.221Z,13.17
2018-10-03T09:35:41.606Z,13.40
2018-10-03T09:38:12.881Z,13.65
2018-10-03T09:40:43.377Z,13.88
2018-10-03T09:43:13.638Z,14.12
2018-10-03T09:45:43.915Z,14.30
2018-10-03T09:48:14.593Z,14.52
2018-10-03T09:50:45.283Z,14.70
2018-10-03T09:53:15.863Z,14.70
2018-10-03T09:55:46.348Z,14.86
2018-10-03T09:58:17.049Z,14.90
2018-10-03T10:00:52.031Z,14.99
2018-10-03T10:03:23.453Z,15.03
2018-10-03T10:05:53.142Z,14.88
2018-10-03T10:08:22.899Z,14.73
2018-10-03T10:10:53.743Z,14.62
2018-10-03T10:13:24.583Z,14.55
2018-10-03T10:15:55.431Z,14.61
2018-10-03T10:18:25.177Z,14.68
2018-10-03T10:20:55.887Z,14.60
2018-10-03T10:23:26.049Z,14.51
2018-10-03T10:25:56.084Z,14.49
2018-10-03T10:28:26.714Z,14.41
2018-10-03T10:30:56.882Z,14.37
2018-10-03T10:33:34.587Z,14.41
2018-10-03T10:36:05.137Z,14.49
2018-10-03T10:38:35.374Z,14.54
2018-10-03T10:41:05.062Z,14.52
2018-10-03T10:43:34.709Z,14.50
2018-10-03T10:46:04.857Z,14.62
2018-10-03T10:48:34.591Z,14.66
2018-10-03T10:51:04.823Z,14.88
2018-10-03T10:53:35.932Z,15.09
2018-10-03T10:56:05.887Z,15.16
2018-10-03T10:58:36.085Z,15.40
2018-10-03T11:01:05.847Z,15.62
2018-10-03T11:03:35.650Z,15.76
2018-10-03T11:06:07.842Z,15.94
2018-10-03T11:08:38.014Z,16.04
2018-10-03T11:11:08.667Z,10.38
2018-10-03T11:13:39.192Z,15.79
2018-10-03T11:16:09.342Z,15.78
2018-10-03T11:18:40.090Z,15.79
2018-10-03T11:21:10.785Z,15.81
2018-10-03T11:23:41.075Z,15.77
2018-10-03T11:26:12.421Z,15.77
2018-10-03T11:28:42.410Z,15.78
2018-10-03T11:31:13.939Z,15.80
2018-10-03T11:33:43.640Z,15.77
2018-10-03T11:36:13.358Z,15.84
2018-10-03T11:38:43.731Z,15.93
2018-10-03T11:41:14.704Z,16.01
2018-10-03T11:43:44.712Z,16.03
2018-10-03T11:46:15.500Z,16.08
2018-10-03T11:48:46.046Z,16.04
2018-10-03T11:51:15.774Z,16.13
2018-10-03T11:53:45.743Z,16.13
2018-10-03T11:56:16.201Z,16.24
2018-10-03T11:58:46.955Z,16.18
2018-10-03T12:01:18.276Z,16.19
2018-10-03T12:03:49.517Z,16.21
2018-10-03T12:06:19.622Z,16.13
2018-10-03T12:08:49.665Z,16.11
2018-10-03T12:11:20.324Z,16.05
2018-10-03T12:13:51.337Z,16.10
2018-10-03T12:16:21.571Z,16.16
2018-10-03T12:18:53.170Z,16.27
2018-10-03T12:21:24.102Z,16.27
2018-10-03T12:23:54.429Z,16.30
2018-10-03T12:26:26.338Z,16.27
2018-10-03T12:28:57.069Z,16.28
2018-10-03T12:31:26.928Z,16.32
2018-10-03T12:33:57.436Z,16.37
2018-10-03T12:36:28.718Z,16.37
2018-10-03T12:38:58.941Z,16.37
2018-10-03T12:41:29.625Z,16.40
2018-10-03T12:43:59.343Z,16.47
2018-10-03T12:46:29.591Z,16.52
2018-10-03T12:48:59.370Z,16.59
2018-10-03T12:51:30.249Z,16.59
2018-10-03T12:54:00.541Z,16.55
2018-10-03T12:56:31.520Z,16.57
2018-10-03T12:59:01.783Z,16.63
2018-10-03T13:01:32.267Z,16.73
2018-10-03T13:04:03.480Z,16.79
2018-10-03T13:06:34.240Z,16.82
2018-10-03T13:09:05.784Z,16.85
2018-10-03T13:11:35.715Z,16.88
2018-10-03T13:14:05.616Z,16.96
2018-10-03T13:16:35.533Z,16.96
2018-10-03T13:19:05.459Z,16.97
2018-10-03T13:21:35.316Z,17.01
2018-10-03T13:24:05.211Z,16.95
2018-10-03T13:26:35.327Z,16.96
2018-10-03T13:29:05.169Z,17.16
2018-10-03T13:31:35.068Z,17.06
2018-10-03T13:34:04.841Z,16.99
2018-10-03T13:36:34.756Z,16.92
2018-10-03T13:39:05.283Z,16.95
2018-10-03T13:41:35.221Z,16.96
2018-10-03T13:44:05.023Z,16.98
2018-10-03T13:46:34.893Z,17.00
2018-10-03T13:49:04.737Z,16.94
2018-10-03T13:51:34.567Z,16.92
2018-10-03T13:54:04.450Z,16.90
2018-10-03T13:56:34.382Z,16.91
2018-10-03T13:59:04.225Z,16.79
2018-10-03T14:01:34.169Z,16.78
2018-10-03T14:04:04.021Z,16.79
2018-10-03T14:06:33.913Z,16.78
2018-10-03T14:09:03.900Z,16.76
2018-10-03T14:11:33.725Z,16.82
2018-10-03T14:14:03.563Z,16.78
2018-10-03T14:16:33.454Z,16.69
2018-10-03T14:19:03.349Z,16.63
2018-10-03T14:21:33.125Z,16.59
2018-10-03T14:24:03.040Z,16.57
2018-10-03T14:26:32.872Z,16.54
2018-10-03T14:29:02.752Z,16.56
2018-10-03T14:31:32.538Z,16.50
2018-10-03T14:34:02.452Z,16.57
2018-10-03T14:36:32.414Z,16.50
2018-10-03T14:39:02.199Z,16.39
2018-10-03T14:41:31.986Z,16.32
2018-10-03T14:44:01.806Z,16.30
2018-10-03T14:46:31.755Z,16.32
2018-10-03T14:49:01.608Z,16.34
2018-10-03T14:51:31.459Z,16.34
2018-10-03T14:54:01.356Z,16.32
2018-10-03T14:56:31.332Z,16.30
2018-10-03T14:59:01.276Z,16.27
2018-10-03T15:01:31.065Z,16.23
2018-10-03T15:04:00.847Z,16.18
2018-10-03T15:06:30.711Z,16.14
2018-10-03T15:09:00.584Z,16.10
2018-10-03T15:11:30.394Z,16.04
2018-10-03T15:14:00.296Z,16.01
2018-10-03T15:16:30.235Z,15.97
2018-10-03T15:19:00.100Z,15.92
2018-10-03T15:21:29.918Z,15.85
2018-10-03T15:23:59.871Z,15.79
2018-10-03T15:26:29.758Z,15.75
2018-10-03T15:28:59.640Z,15.69
2018-10-03T15:31:29.430Z,15.61
2018-10-03T15:33:59.352Z,15.57
2018-10-03T15:36:29.274Z,15.56
2018-10-03T15:38:59.116Z,15.48
2018-10-03T15:41:30.412Z,15.41
2018-10-03T15:44:00.492Z,15.33
2018-10-03T15:46:30.391Z,15.27
2018-10-03T15:49:00.273Z,15.26
2018-10-03T15:51:30.005Z,15.19
2018-10-03T15:53:59.965Z,15.08
2018-10-03T15:56:29.865Z,14.97
2018-10-03T15:58:59.779Z,14.89
2018-10-03T16:01:29.728Z,14.84
2018-10-03T16:03:59.652Z,14.98
2018-10-03T16:06:29.621Z,15.01
2018-10-03T16:08:59.583Z,14.87
2018-10-03T16:11:29.385Z,14.73
2018-10-03T16:13:59.231Z,14.59
2018-10-03T16:16:29.143Z,14.47
2018-10-03T16:18:59.000Z,14.36
2018-10-03T16:21:28.814Z,14.36
2018-10-03T16:23:58.889Z,14.32
2018-10-03T16:26:28.843Z,14.32
2018-10-03T16:28:58.716Z,14.20
2018-10-03T16:31:28.604Z,14.08
2018-10-03T16:33:58.358Z,13.99
2018-10-03T16:36:28.243Z,13.93
2018-10-03T16:38:58.232Z,13.89
2018-10-03T16:41:28.001Z,13.83
2018-10-03T16:43:57.865Z,13.77
2018-10-03T16:46:27.939Z,13.72
2018-10-03T16:48:57.888Z,13.66
2018-10-03T16:51:27.774Z,13.63
2018-10-03T16:53:57.674Z,13.61
2018-10-03T16:56:27.589Z,13.57
2018-10-03T16:58:57.545Z,13.54
2018-10-03T17:01:27.375Z,13.50
2018-10-03T17:03:57.198Z,13.47
2018-10-03T17:06:27.084Z,13.52
2018-10-03T17:08:57.021Z,13.61
2018-10-03T17:11:26.837Z,13.26
2018-10-03T17:14:17.679Z,13.86
2018-10-03T17:16:47.507Z,13.94
2018-10-03T17:19:17.512Z,13.96
2018-10-03T17:21:47.819Z,13.85
2018-10-03T17:24:17.699Z,13.70
2018-10-03T17:26:47.677Z,13.60
2018-10-03T17:29:17.885Z,13.48
2018-10-03T17:31:48.135Z,13.40
2018-10-03T17:34:18.608Z,13.33
2018-10-03T17:36:50.660Z,13.33
2018-10-03T17:39:21.268Z,13.28
2018-10-03T17:41:51.219Z,13.24
2018-10-03T17:44:21.874Z,13.20
2018-10-03T17:46:53.283Z,13.05
2018-10-03T17:49:23.227Z,12.99
2018-10-03T17:51:53.071Z,13.03
2018-10-03T17:54:23.015Z,13.06
2018-10-03T17:56:52.892Z,13.04
2018-10-03T17:59:22.931Z,13.06
2018-10-03T18:01:55.580Z,13.10
2018-10-03T18:04:25.575Z,13.05
2018-10-03T18:06:55.605Z,13.04
2018-10-03T18:09:25.704Z,12.98
2018-10-03T18:11:55.653Z,12.90
2018-10-03T18:14:26.200Z,12.80
2018-10-03T18:16:56.500Z,3.09
2018-10-03T18:19:26.781Z,12.93
2018-10-03T18:21:57.089Z,12.95
2018-10-03T20:09:31.214Z,11.66
2018-10-03T20:12:15.497Z,11.74
2018-10-03T20:14:46.310Z,11.78
2018-10-03T20:17:16.737Z,12.13
2018-10-03T20:19:47.386Z,12.22
2018-10-03T20:22:18.050Z,12.10
2018-10-03T20:24:48.907Z,12.02
2018-10-03T20:27:19.605Z,11.94
2018-10-03T20:29:50.342Z,11.85
2018-10-03T20:32:20.800Z,11.80
2018-10-03T20:34:51.008Z,11.72
2018-10-03T20:37:21.974Z,11.61
2018-10-03T20:39:51.861Z,11.54
2018-10-03T20:42:22.975Z,11.46
2018-10-03T20:44:53.766Z,11.43
2018-10-03T20:47:24.095Z,11.41
2018-10-03T20:49:55.022Z,11.40
2018-10-03T20:52:25.405Z,11.40
2018-10-03T20:54:55.412Z,11.37
2018-10-03T20:57:26.219Z,11.37
2018-10-03T20:59:56.827Z,11.37
2018-10-03T21:02:27.021Z,11.32
2018-10-03T21:04:57.393Z,11.25
2018-10-03T21:07:28.313Z,11.26
2018-10-03T21:09:58.667Z,11.20
2018-10-03T21:12:29.349Z,11.12
2018-10-03T21:14:59.325Z,11.08
2018-10-03T21:17:29.821Z,11.00
2018-10-03T21:20:00.024Z,10.97
2018-10-03T21:22:30.389Z,10.98
2018-10-03T21:25:00.681Z,10.95
2018-10-03T21:27:30.868Z,10.95
2018-10-03T21:30:01.541Z,10.95
2018-10-03T21:32:31.982Z,11.01
2018-10-03T21:35:02.288Z,10.69
2018-10-03T21:37:32.733Z,11.12
2018-10-03T21:40:02.971Z,11.09
2018-10-03T21:42:33.197Z,11.08
2018-10-03T21:45:03.212Z,11.06
2018-10-03T21:47:33.324Z,10.98
2018-10-03T21:50:03.154Z,10.93
2018-10-03T21:52:32.993Z,10.89
2018-10-03T21:55:02.842Z,10.84
2018-10-03T21:57:32.756Z,10.81
2018-10-03T22:00:02.623Z,10.77
2018-10-03T22:02:32.399Z,10.74
2018-10-03T22:05:02.299Z,10.73
2018-10-03T22:07:32.183Z,10.71
2018-10-03T22:10:01.997Z,10.66
2018-10-03T22:12:31.904Z,10.67
2018-10-03T22:15:01.728Z,10.64
2018-10-03T22:17:35.677Z,10.60
2018-10-03T22:20:05.535Z,10.53
2018-10-03T22:22:35.417Z,10.54
2018-10-03T22:25:05.156Z,10.50
2018-10-03T22:27:35.076Z,10.47
2018-10-03T22:30:05.138Z,10.40
2018-10-03T22:32:35.008Z,10.44
2018-10-03T22:35:04.856Z,10.44
2018-10-03T22:37:34.785Z,10.43
2018-10-03T22:40:04.652Z,10.38
2018-10-03T22:42:34.495Z,10.22
2018-10-03T22:45:04.369Z,10.17
2018-10-03T22:47:34.326Z,10.18
2018-10-03T22:50:04.297Z,10.19
2018-10-03T22:52:34.121Z,10.21
2018-10-03T22:55:04.018Z,10.21
2018-10-03T22:57:33.855Z,10.23
2018-10-03T23:00:03.695Z,10.21
2018-10-03T23:02:33.566Z,10.06
2018-10-03T23:05:03.389Z,10.00
2018-10-03T23:07:33.236Z,10.00
2018-10-03T23:10:03.060Z,9.93
2018-10-03T23:12:32.876Z,9.93
2018-10-03T23:15:02.709Z,9.94
2018-10-03T23:17:32.600Z,9.94
2018-10-03T23:20:02.395Z,9.92
2018-10-03T23:22:32.152Z,9.80
2018-10-03T23:25:02.019Z,9.83
2018-10-03T23:27:31.905Z,10.05
2018-10-03T23:30:01.797Z,10.08
2018-10-03T23:32:31.583Z,10.11
2018-10-03T23:35:01.460Z,10.05
2018-10-03T23:37:31.322Z,9.97
2018-10-03T23:40:01.188Z,9.99
2018-10-03T23:42:31.008Z,8.64
2018-10-03T23:45:00.750Z,9.97
2018-10-03T23:47:30.662Z,9.97
2018-10-03T23:50:00.419Z,9.97
2018-10-03T23:52:30.280Z,9.98
2018-10-03T23:55:00.139Z,9.96
2018-10-03T23:57:30.085Z,9.95
2018-10-03T23:59:59.891Z,9.94
